sensor_id;sensor_type;location;lat;lon;timestamp;P1;durP1;ratioP1;P2;durP2;ratioP2
73104;SDS011;61296;50.526;30.792;2023-02-11T00:14:31;36.28;;;14.43;;
73104;SDS011;61296;50.526;30.792;2023-02-11T00:29:50;36.17;;;14.82;;
73104;SDS011;61296;50.526;30.792;2023-02-11T00:45:10;34.08;;;15.05;;
73104;SDS011;61296;50.526;30.792;2023-02-11T01:00:36;38.13;;;15.52;;
73104;SDS011;61296;50.526;30.792;2023-02-11T01:15:56;40.67;;;14.77;;
73104;SDS011;61296;50.526;30.792;2023-02-11T01:31:17;32.25;;;14.13;;
73104;SDS011;61296;50.526;30.792;2023-02-11T01:46:48;33.42;;;14.05;;
73104;SDS011;61296;50.526;30.792;2023-02-11T02:02:10;32.63;;;13.82;;
73104;SDS011;61296;50.526;30.792;2023-02-11T02:17:35;29.13;;;12.65;;
73104;SDS011;61296;50.526;30.792;2023-02-11T02:48:51;30.48;;;12.63;;
73104;SDS011;61296;50.526;30.792;2023-02-11T03:04:16;37.40;;;15.10;;
73104;SDS011;61296;50.526;30.792;2023-02-11T03:19:43;39.70;;;15.75;;
73104;SDS011;61296;50.526;30.792;2023-02-11T03:35:09;37.83;;;15.50;;
73104;SDS011;61296;50.526;30.792;2023-02-11T03:50:34;37.70;;;16.17;;
73104;SDS011;61296;50.526;30.792;2023-02-11T04:05:55;41.72;;;16.48;;
73104;SDS011;61296;50.526;30.792;2023-02-11T04:21:14;40.55;;;15.73;;
73104;SDS011;61296;50.526;30.792;2023-02-11T04:36:33;35.78;;;15.38;;
73104;SDS011;61296;50.526;30.792;2023-02-11T04:51:52;35.55;;;15.50;;
73104;SDS011;61296;50.526;30.792;2023-02-11T05:07:11;35.40;;;15.13;;
73104;SDS011;61296;50.526;30.792;2023-02-11T05:22:31;38.00;;;15.23;;
73104;SDS011;61296;50.526;30.792;2023-02-11T05:37:49;39.33;;;16.33;;
73104;SDS011;61296;50.526;30.792;2023-02-11T05:53:09;36.17;;;16.02;;
73104;SDS011;61296;50.526;30.792;2023-02-11T06:08:29;37.70;;;16.20;;
73104;SDS011;61296;50.526;30.792;2023-02-11T06:23:48;44.95;;;18.90;;
73104;SDS011;61296;50.526;30.792;2023-02-11T06:39:07;57.65;;;22.45;;
73104;SDS011;61296;50.526;30.792;2023-02-11T06:54:26;57.80;;;22.25;;
73104;SDS011;61296;50.526;30.792;2023-02-11T07:09:46;53.85;;;20.73;;
73104;SDS011;61296;50.526;30.792;2023-02-11T07:25:05;47.88;;;18.88;;
73104;SDS011;61296;50.526;30.792;2023-02-11T07:40:24;48.63;;;18.83;;
73104;SDS011;61296;50.526;30.792;2023-02-11T07:55:43;47.10;;;18.02;;
73104;SDS011;61296;50.526;30.792;2023-02-11T08:11:14;48.13;;;19.13;;
73104;SDS011;61296;50.526;30.792;2023-02-11T08:26:35;57.17;;;20.23;;
73104;SDS011;61296;50.526;30.792;2023-02-11T08:41:54;50.28;;;19.58;;
73104;SDS011;61296;50.526;30.792;2023-02-11T08:57:14;45.78;;;19.08;;
73104;SDS011;61296;50.526;30.792;2023-02-11T09:12:34;60.78;;;20.40;;
73104;SDS011;61296;50.526;30.792;2023-02-11T09:27:54;52.42;;;19.73;;
73104;SDS011;61296;50.526;30.792;2023-02-11T09:43:16;58.63;;;20.27;;
73104;SDS011;61296;50.526;30.792;2023-02-11T09:58:39;58.17;;;22.10;;
73104;SDS011;61296;50.526;30.792;2023-02-11T10:29:54;56.65;;;21.75;;
73104;SDS011;61296;50.526;30.792;2023-02-11T11:00:52;49.38;;;20.65;;
73104;SDS011;61296;50.526;30.792;2023-02-11T11:31:33;52.60;;;21.73;;
73104;SDS011;61296;50.526;30.792;2023-02-11T12:33:46;54.67;;;22.52;;
73104;SDS011;61296;50.526;30.792;2023-02-11T12:49:27;54.78;;;21.58;;
73104;SDS011;61296;50.526;30.792;2023-02-11T13:05:13;52.95;;;21.50;;
73104;SDS011;61296;50.526;30.792;2023-02-11T13:20:47;47.77;;;20.53;;
73104;SDS011;61296;50.526;30.792;2023-02-11T13:36:18;46.13;;;20.58;;
73104;SDS011;61296;50.526;30.792;2023-02-11T13:51:39;49.22;;;21.00;;
73104;SDS011;61296;50.526;30.792;2023-02-11T14:23:03;38.88;;;16.40;;
73104;SDS011;61296;50.526;30.792;2023-02-11T14:54:01;24.75;;;10.15;;
73104;SDS011;61296;50.526;30.792;2023-02-11T15:09:39;32.50;;;12.65;;
73104;SDS011;61296;50.526;30.792;2023-02-11T15:25:02;25.27;;;12.00;;
73104;SDS011;61296;50.526;30.792;2023-02-11T15:40:29;27.67;;;12.00;;
73104;SDS011;61296;50.526;30.792;2023-02-11T15:55:52;31.05;;;12.82;;
73104;SDS011;61296;50.526;30.792;2023-02-11T16:26:44;29.00;;;13.00;;
73104;SDS011;61296;50.526;30.792;2023-02-11T16:42:06;30.90;;;13.60;;
73104;SDS011;61296;50.526;30.792;2023-02-11T16:57:25;33.75;;;14.35;;
73104;SDS011;61296;50.526;30.792;2023-02-11T17:12:46;31.95;;;14.43;;
73104;SDS011;61296;50.526;30.792;2023-02-11T17:28:06;32.05;;;14.45;;
73104;SDS011;61296;50.526;30.792;2023-02-11T17:59:20;34.78;;;14.13;;
73104;SDS011;61296;50.526;30.792;2023-02-11T18:14:39;32.03;;;12.65;;
73104;SDS011;61296;50.526;30.792;2023-02-11T18:29:59;28.83;;;13.00;;
73104;SDS011;61296;50.526;30.792;2023-02-11T18:45:18;31.95;;;13.15;;
73104;SDS011;61296;50.526;30.792;2023-02-11T19:00:42;28.80;;;13.23;;
73104;SDS011;61296;50.526;30.792;2023-02-11T19:16:10;31.33;;;13.97;;
73104;SDS011;61296;50.526;30.792;2023-02-11T19:31:32;35.13;;;14.55;;
73104;SDS011;61296;50.526;30.792;2023-02-11T19:46:51;34.17;;;14.70;;
73104;SDS011;61296;50.526;30.792;2023-02-11T20:02:11;33.90;;;14.85;;
73104;SDS011;61296;50.526;30.792;2023-02-11T20:17:31;36.10;;;15.73;;
73104;SDS011;61296;50.526;30.792;2023-02-11T20:32:58;39.97;;;15.65;;
73104;SDS011;61296;50.526;30.792;2023-02-11T20:48:18;42.30;;;16.95;;
73104;SDS011;61296;50.526;30.792;2023-02-11T21:19:08;43.67;;;18.00;;
73104;SDS011;61296;50.526;30.792;2023-02-11T21:34:28;48.90;;;19.90;;
73104;SDS011;61296;50.526;30.792;2023-02-11T21:49:47;48.25;;;18.90;;
73104;SDS011;61296;50.526;30.792;2023-02-11T22:05:07;45.97;;;19.08;;
73104;SDS011;61296;50.526;30.792;2023-02-11T22:20:26;48.47;;;20.33;;
73104;SDS011;61296;50.526;30.792;2023-02-11T22:35:45;47.15;;;19.95;;
73104;SDS011;61296;50.526;30.792;2023-02-11T22:51:15;50.88;;;20.33;;
73104;SDS011;61296;50.526;30.792;2023-02-11T23:06:37;53.13;;;21.27;;
73104;SDS011;61296;50.526;30.792;2023-02-11T23:21:56;48.58;;;19.17;;
73104;SDS011;61296;50.526;30.792;2023-02-11T23:37:16;43.38;;;17.83;;
73104;SDS011;61296;50.526;30.792;2023-02-11T23:52:35;43.58;;;18.70;;
